sensor_id;sensor_type;location;lat;lon;timestamp;temperature;humidity
19359;DHT22;9815;52.334;20.890;2023-02-28T00:01:26;-2.70;99.90
19359;DHT22;9815;52.334;20.890;2023-02-28T00:03:55;-2.80;99.90
19359;DHT22;9815;52.334;20.890;2023-02-28T00:06:24;-2.80;99.90
19359;DHT22;9815;52.334;20.890;2023-02-28T00:08:52;-2.80;99.90
19359;DHT22;9815;52.334;20.890;2023-02-28T00:11:20;-2.80;99.90
19359;DHT22;9815;52.334;20.890;2023-02-28T00:13:48;-2.90;99.90
19359;DHT22;9815;52.334;20.890;2023-02-28T00:16:18;-2.90;99.90
19359;DHT22;9815;52.334;20.890;2023-02-28T00:18:47;-2.90;99.90
19359;DHT22;9815;52.334;20.890;2023-02-28T00:21:17;-2.90;99.90
19359;DHT22;9815;52.334;20.890;2023-02-28T00:23:47;-2.90;99.90
19359;DHT22;9815;52.334;20.890;2023-02-28T00:26:15;-3.00;99.90
19359;DHT22;9815;52.334;20.890;2023-02-28T00:28:45;-3.00;99.90
19359;DHT22;9815;52.334;20.890;2023-02-28T00:31:15;-3.00;99.90
19359;DHT22;9815;52.334;20.890;2023-02-28T00:33:43;-3.10;99.90
19359;DHT22;9815;52.334;20.890;2023-02-28T00:36:11;-3.10;99.90
19359;DHT22;9815;52.334;20.890;2023-02-28T00:38:40;-3.10;99.90
19359;DHT22;9815;52.334;20.890;2023-02-28T00:41:10;-3.10;99.90
19359;DHT22;9815;52.334;20.890;2023-02-28T00:43:39;-3.20;99.90
19359;DHT22;9815;52.334;20.890;2023-02-28T00:46:07;-3.20;99.90
19359;DHT22;9815;52.334;20.890;2023-02-28T00:48:36;-3.20;99.90
19359;DHT22;9815;52.334;20.890;2023-02-28T00:51:05;-3.20;99.90
19359;DHT22;9815;52.334;20.890;2023-02-28T00:53:33;-3.20;99.90
19359;DHT22;9815;52.334;20.890;2023-02-28T00:56:01;-3.30;99.90
19359;DHT22;9815;52.334;20.890;2023-02-28T00:58:30;-3.30;99.90
19359;DHT22;9815;52.334;20.890;2023-02-28T01:00:58;-3.30;99.90
19359;DHT22;9815;52.334;20.890;2023-02-28T01:03:26;-3.40;99.90
19359;DHT22;9815;52.334;20.890;2023-02-28T01:05:54;-3.50;99.90
19359;DHT22;9815;52.334;20.890;2023-02-28T01:08:22;-3.50;99.90
19359;DHT22;9815;52.334;20.890;2023-02-28T01:10:51;-3.60;99.90
19359;DHT22;9815;52.334;20.890;2023-02-28T01:13:19;-3.60;99.90
19359;DHT22;9815;52.334;20.890;2023-02-28T01:15:51;-3.60;99.90
19359;DHT22;9815;52.334;20.890;2023-02-28T01:18:20;-3.60;99.90
19359;DHT22;9815;52.334;20.890;2023-02-28T01:20:48;-3.60;99.90
19359;DHT22;9815;52.334;20.890;2023-02-28T01:23:18;-3.60;99.90
19359;DHT22;9815;52.334;20.890;2023-02-28T01:25:46;-3.70;99.90
19359;DHT22;9815;52.334;20.890;2023-02-28T01:28:14;-3.70;99.90
19359;DHT22;9815;52.334;20.890;2023-02-28T01:30:42;-3.70;99.90
19359;DHT22;9815;52.334;20.890;2023-02-28T01:33:12;-3.80;99.90
19359;DHT22;9815;52.334;20.890;2023-02-28T01:35:40;-3.80;99.90
19359;DHT22;9815;52.334;20.890;2023-02-28T01:38:08;-3.90;99.90
19359;DHT22;9815;52.334;20.890;2023-02-28T01:40:48;-3.90;99.90
19359;DHT22;9815;52.334;20.890;2023-02-28T01:43:20;-3.90;99.90
19359;DHT22;9815;52.334;20.890;2023-02-28T01:45:49;-3.90;99.90
19359;DHT22;9815;52.334;20.890;2023-02-28T01:48:19;-3.90;99.90
19359;DHT22;9815;52.334;20.890;2023-02-28T01:50:49;-3.90;99.90
19359;DHT22;9815;52.334;20.890;2023-02-28T01:53:19;-4.00;99.90
19359;DHT22;9815;52.334;20.890;2023-02-28T01:55:50;-4.00;99.90
19359;DHT22;9815;52.334;20.890;2023-02-28T01:58:20;-4.00;99.90
19359;DHT22;9815;52.334;20.890;2023-02-28T02:00:48;-4.00;99.90
19359;DHT22;9815;52.334;20.890;2023-02-28T02:03:19;-4.00;99.90
19359;DHT22;9815;52.334;20.890;2023-02-28T02:05:48;-4.00;99.90
19359;DHT22;9815;52.334;20.890;2023-02-28T02:08:19;-4.00;99.90
19359;DHT22;9815;52.334;20.890;2023-02-28T02:10:49;-4.00;99.90
19359;DHT22;9815;52.334;20.890;2023-02-28T02:13:42;-4.10;99.90
19359;DHT22;9815;52.334;20.890;2023-02-28T02:16:30;-4.10;99.90
19359;DHT22;9815;52.334;20.890;2023-02-28T02:19:12;-4.20;99.90
19359;DHT22;9815;52.334;20.890;2023-02-28T02:22:18;-4.20;99.90
19359;DHT22;9815;52.334;20.890;2023-02-28T02:25:03;-4.20;99.90
19359;DHT22;9815;52.334;20.890;2023-02-28T02:27:55;-4.30;99.90
19359;DHT22;9815;52.334;20.890;2023-02-28T02:30:46;-4.30;99.90
19359;DHT22;9815;52.334;20.890;2023-02-28T02:33:33;-4.30;99.90
19359;DHT22;9815;52.334;20.890;2023-02-28T02:36:13;-4.40;99.90
19359;DHT22;9815;52.334;20.890;2023-02-28T02:38:47;-4.40;99.90
19359;DHT22;9815;52.334;20.890;2023-02-28T02:41:19;-4.40;99.90
19359;DHT22;9815;52.334;20.890;2023-02-28T02:43:53;-4.50;99.90
19359;DHT22;9815;52.334;20.890;2023-02-28T02:46:28;-4.50;99.90
19359;DHT22;9815;52.334;20.890;2023-02-28T02:49:00;-4.50;99.90
19359;DHT22;9815;52.334;20.890;2023-02-28T02:51:30;-4.50;99.90
19359;DHT22;9815;52.334;20.890;2023-02-28T02:54:04;-4.50;99.90
19359;DHT22;9815;52.334;20.890;2023-02-28T02:56:35;-4.60;99.90
19359;DHT22;9815;52.334;20.890;2023-02-28T02:59:07;-4.60;99.90
19359;DHT22;9815;52.334;20.890;2023-02-28T03:01:38;-4.60;99.90
19359;DHT22;9815;52.334;20.890;2023-02-28T03:04:10;-4.60;99.90
19359;DHT22;9815;52.334;20.890;2023-02-28T03:06:40;-4.60;99.90
19359;DHT22;9815;52.334;20.890;2023-02-28T03:09:08;-4.50;99.90
19359;DHT22;9815;52.334;20.890;2023-02-28T03:11:39;-4.50;99.90
19359;DHT22;9815;52.334;20.890;2023-02-28T03:14:24;-4.50;99.90
19359;DHT22;9815;52.334;20.890;2023-02-28T03:17:15;-4.50;99.90
19359;DHT22;9815;52.334;20.890;2023-02-28T03:20:01;-4.50;99.90
19359;DHT22;9815;52.334;20.890;2023-02-28T03:22:49;-4.50;99.90
19359;DHT22;9815;52.334;20.890;2023-02-28T03:25:25;-4.50;99.90
19359;DHT22;9815;52.334;20.890;2023-02-28T03:28:04;-4.60;99.90
19359;DHT22;9815;52.334;20.890;2023-02-28T03:30:38;-4.50;99.90
19359;DHT22;9815;52.334;20.890;2023-02-28T03:33:11;-4.60;99.90
19359;DHT22;9815;52.334;20.890;2023-02-28T03:35:43;-4.60;99.90
19359;DHT22;9815;52.334;20.890;2023-02-28T03:38:18;-4.70;99.90
19359;DHT22;9815;52.334;20.890;2023-02-28T03:40:51;-4.70;99.90
19359;DHT22;9815;52.334;20.890;2023-02-28T03:43:27;-4.70;99.90
19359;DHT22;9815;52.334;20.890;2023-02-28T03:45:56;-4.70;99.90
19359;DHT22;9815;52.334;20.890;2023-02-28T03:48:32;-4.80;99.90
19359;DHT22;9815;52.334;20.890;2023-02-28T03:51:03;-4.80;99.90
19359;DHT22;9815;52.334;20.890;2023-02-28T03:53:39;-4.80;99.90
19359;DHT22;9815;52.334;20.890;2023-02-28T03:56:13;-4.80;99.90
19359;DHT22;9815;52.334;20.890;2023-02-28T03:58:48;-4.90;99.90
19359;DHT22;9815;52.334;20.890;2023-02-28T04:01:19;-4.90;99.90
19359;DHT22;9815;52.334;20.890;2023-02-28T04:03:49;-4.90;99.90
19359;DHT22;9815;52.334;20.890;2023-02-28T04:06:19;-4.80;99.90
19359;DHT22;9815;52.334;20.890;2023-02-28T04:08:49;-4.90;99.90
19359;DHT22;9815;52.334;20.890;2023-02-28T04:11:21;-4.80;99.90
19359;DHT22;9815;52.334;20.890;2023-02-28T04:13:50;-4.90;99.90
19359;DHT22;9815;52.334;20.890;2023-02-28T04:16:18;-4.90;99.90
19359;DHT22;9815;52.334;20.890;2023-02-28T04:19:00;-4.90;99.90
19359;DHT22;9815;52.334;20.890;2023-02-28T04:21:30;-4.90;99.90
19359;DHT22;9815;52.334;20.890;2023-02-28T04:24:00;-4.90;99.90
19359;DHT22;9815;52.334;20.890;2023-02-28T04:26:29;-4.90;99.90
19359;DHT22;9815;52.334;20.890;2023-02-28T04:28:59;-4.90;99.90
19359;DHT22;9815;52.334;20.890;2023-02-28T04:31:27;-4.90;99.90
19359;DHT22;9815;52.334;20.890;2023-02-28T04:33:56;-4.90;99.90
19359;DHT22;9815;52.334;20.890;2023-02-28T04:36:24;-4.90;99.90
19359;DHT22;9815;52.334;20.890;2023-02-28T04:38:52;-4.90;99.90
19359;DHT22;9815;52.334;20.890;2023-02-28T04:41:23;-4.90;99.90
19359;DHT22;9815;52.334;20.890;2023-02-28T04:43:51;-5.00;99.90
19359;DHT22;9815;52.334;20.890;2023-02-28T04:46:19;-5.00;99.90
19359;DHT22;9815;52.334;20.890;2023-02-28T04:48:47;-5.10;99.90
19359;DHT22;9815;52.334;20.890;2023-02-28T04:51:17;-5.10;99.90
19359;DHT22;9815;52.334;20.890;2023-02-28T04:53:46;-5.10;99.90
19359;DHT22;9815;52.334;20.890;2023-02-28T04:56:16;-5.10;99.90
19359;DHT22;9815;52.334;20.890;2023-02-28T04:58:46;-5.10;99.90
19359;DHT22;9815;52.334;20.890;2023-02-28T05:01:19;-5.10;99.90
19359;DHT22;9815;52.334;20.890;2023-02-28T05:03:49;-5.10;99.90
19359;DHT22;9815;52.334;20.890;2023-02-28T05:06:18;-5.20;99.90
19359;DHT22;9815;52.334;20.890;2023-02-28T05:08:47;-5.00;99.90
19359;DHT22;9815;52.334;20.890;2023-02-28T05:11:18;-5.20;99.90
19359;DHT22;9815;52.334;20.890;2023-02-28T05:13:48;-5.20;99.90
19359;DHT22;9815;52.334;20.890;2023-02-28T05:16:16;-5.20;99.90
19359;DHT22;9815;52.334;20.890;2023-02-28T05:18:45;-5.20;99.90
19359;DHT22;9815;52.334;20.890;2023-02-28T05:21:25;-5.30;99.90
19359;DHT22;9815;52.334;20.890;2023-02-28T05:23:54;-5.30;99.90
19359;DHT22;9815;52.334;20.890;2023-02-28T05:26:23;-5.40;99.90
19359;DHT22;9815;52.334;20.890;2023-02-28T05:28:54;-5.30;99.90
19359;DHT22;9815;52.334;20.890;2023-02-28T05:31:23;-5.30;99.90
19359;DHT22;9815;52.334;20.890;2023-02-28T05:33:51;-5.30;99.90
19359;DHT22;9815;52.334;20.890;2023-02-28T05:36:19;-5.30;99.90
19359;DHT22;9815;52.334;20.890;2023-02-28T05:38:48;-5.30;99.90
19359;DHT22;9815;52.334;20.890;2023-02-28T05:41:17;-5.30;99.90
19359;DHT22;9815;52.334;20.890;2023-02-28T05:43:47;-5.20;99.90
19359;DHT22;9815;52.334;20.890;2023-02-28T05:46:17;-5.20;99.90
19359;DHT22;9815;52.334;20.890;2023-02-28T05:48:47;-5.20;99.90
19359;DHT22;9815;52.334;20.890;2023-02-28T05:51:16;-5.10;99.90
19359;DHT22;9815;52.334;20.890;2023-02-28T05:53:44;-5.20;99.90
19359;DHT22;9815;52.334;20.890;2023-02-28T05:56:12;-5.10;99.90
19359;DHT22;9815;52.334;20.890;2023-02-28T05:58:40;-5.10;99.90
19359;DHT22;9815;52.334;20.890;2023-02-28T06:01:30;-5.10;99.90
19359;DHT22;9815;52.334;20.890;2023-02-28T06:03:59;-5.00;99.90
19359;DHT22;9815;52.334;20.890;2023-02-28T06:06:28;-5.00;99.90
19359;DHT22;9815;52.334;20.890;2023-02-28T06:08:56;-4.90;99.90
19359;DHT22;9815;52.334;20.890;2023-02-28T06:11:24;-4.90;99.90
19359;DHT22;9815;52.334;20.890;2023-02-28T06:13:55;-4.90;99.90
19359;DHT22;9815;52.334;20.890;2023-02-28T06:16:24;-4.80;99.90
19359;DHT22;9815;52.334;20.890;2023-02-28T06:18:53;-4.80;99.90
19359;DHT22;9815;52.334;20.890;2023-02-28T06:21:23;-4.70;99.90
19359;DHT22;9815;52.334;20.890;2023-02-28T06:23:51;-4.70;99.90
19359;DHT22;9815;52.334;20.890;2023-02-28T06:26:20;-4.60;99.90
19359;DHT22;9815;52.334;20.890;2023-02-28T06:28:48;-4.50;99.90
19359;DHT22;9815;52.334;20.890;2023-02-28T06:31:18;-4.40;99.90
19359;DHT22;9815;52.334;20.890;2023-02-28T06:33:47;-4.30;99.90
19359;DHT22;9815;52.334;20.890;2023-02-28T06:36:16;-4.20;99.90
19359;DHT22;9815;52.334;20.890;2023-02-28T06:38:44;-4.10;99.90
19359;DHT22;9815;52.334;20.890;2023-02-28T06:41:14;-4.00;99.90
19359;DHT22;9815;52.334;20.890;2023-02-28T06:43:43;-3.90;99.90
19359;DHT22;9815;52.334;20.890;2023-02-28T06:46:13;-3.70;99.90
19359;DHT22;9815;52.334;20.890;2023-02-28T06:48:42;-3.30;99.90
19359;DHT22;9815;52.334;20.890;2023-02-28T06:51:12;-2.90;99.90
19359;DHT22;9815;52.334;20.890;2023-02-28T06:53:42;-2.40;99.90
19359;DHT22;9815;52.334;20.890;2023-02-28T06:56:12;-1.90;99.90
19359;DHT22;9815;52.334;20.890;2023-02-28T06:58:41;-1.60;99.90
19359;DHT22;9815;52.334;20.890;2023-02-28T07:01:09;-1.50;99.90
19359;DHT22;9815;52.334;20.890;2023-02-28T07:03:37;-1.40;99.90
19359;DHT22;9815;52.334;20.890;2023-02-28T07:06:05;-1.30;99.90
19359;DHT22;9815;52.334;20.890;2023-02-28T07:08:34;-1.20;99.90
19359;DHT22;9815;52.334;20.890;2023-02-28T07:11:04;-1.10;99.90
19359;DHT22;9815;52.334;20.890;2023-02-28T07:13:32;-1.00;99.90
19359;DHT22;9815;52.334;20.890;2023-02-28T07:16:02;-1.00;99.90
19359;DHT22;9815;52.334;20.890;2023-02-28T07:18:30;-1.00;99.90
19359;DHT22;9815;52.334;20.890;2023-02-28T07:21:01;-1.00;99.90
19359;DHT22;9815;52.334;20.890;2023-02-28T07:23:29;-0.90;99.90
19359;DHT22;9815;52.334;20.890;2023-02-28T07:25:58;-0.90;99.90
19359;DHT22;9815;52.334;20.890;2023-02-28T07:28:27;-0.90;99.90
19359;DHT22;9815;52.334;20.890;2023-02-28T07:30:55;-0.90;99.90
19359;DHT22;9815;52.334;20.890;2023-02-28T07:33:23;-0.80;99.90
19359;DHT22;9815;52.334;20.890;2023-02-28T07:35:51;-0.70;99.90
19359;DHT22;9815;52.334;20.890;2023-02-28T07:38:19;-0.70;99.90
19359;DHT22;9815;52.334;20.890;2023-02-28T07:40:47;-0.60;99.90
19359;DHT22;9815;52.334;20.890;2023-02-28T07:43:15;-0.50;99.90
19359;DHT22;9815;52.334;20.890;2023-02-28T07:45:44;-0.40;99.90
19359;DHT22;9815;52.334;20.890;2023-02-28T07:48:12;-0.40;99.90
19359;DHT22;9815;52.334;20.890;2023-02-28T07:50:40;-0.30;93.40
19359;DHT22;9815;52.334;20.890;2023-02-28T07:53:08;-0.20;98.40
19359;DHT22;9815;52.334;20.890;2023-02-28T07:55:36;-0.10;97.10
19359;DHT22;9815;52.334;20.890;2023-02-28T07:58:04;0.00;97.10
19359;DHT22;9815;52.334;20.890;2023-02-28T08:00:32;0.10;96.70
19359;DHT22;9815;52.334;20.890;2023-02-28T08:03:01;0.20;89.30
19359;DHT22;9815;52.334;20.890;2023-02-28T08:05:29;0.30;85.50
19359;DHT22;9815;52.334;20.890;2023-02-28T08:07:57;0.20;78.40
19359;DHT22;9815;52.334;20.890;2023-02-28T08:10:25;0.30;73.20
19359;DHT22;9815;52.334;20.890;2023-02-28T08:12:53;0.40;70.60
19359;DHT22;9815;52.334;20.890;2023-02-28T08:15:21;0.40;70.00
19359;DHT22;9815;52.334;20.890;2023-02-28T08:17:49;0.40;70.00
19359;DHT22;9815;52.334;20.890;2023-02-28T08:20:18;0.50;61.80
19359;DHT22;9815;52.334;20.890;2023-02-28T08:22:46;0.60;65.80
19359;DHT22;9815;52.334;20.890;2023-02-28T08:25:14;0.70;69.40
19359;DHT22;9815;52.334;20.890;2023-02-28T08:27:42;0.60;63.40
19359;DHT22;9815;52.334;20.890;2023-02-28T08:30:11;0.70;61.30
19359;DHT22;9815;52.334;20.890;2023-02-28T08:32:40;0.80;63.90
19359;DHT22;9815;52.334;20.890;2023-02-28T08:35:09;0.80;66.00
19359;DHT22;9815;52.334;20.890;2023-02-28T08:37:38;0.80;61.00
19359;DHT22;9815;52.334;20.890;2023-02-28T08:40:07;0.90;65.60
19359;DHT22;9815;52.334;20.890;2023-02-28T08:42:36;1.00;61.00
19359;DHT22;9815;52.334;20.890;2023-02-28T08:45:04;1.10;61.70
19359;DHT22;9815;52.334;20.890;2023-02-28T08:47:33;1.30;55.10
19359;DHT22;9815;52.334;20.890;2023-02-28T08:50:00;1.20;57.00
19359;DHT22;9815;52.334;20.890;2023-02-28T08:52:28;1.40;58.10
19359;DHT22;9815;52.334;20.890;2023-02-28T08:54:58;1.50;57.20
19359;DHT22;9815;52.334;20.890;2023-02-28T08:57:26;1.70;53.40
19359;DHT22;9815;52.334;20.890;2023-02-28T08:59:54;1.90;52.60
19359;DHT22;9815;52.334;20.890;2023-02-28T09:02:22;2.20;51.00
19359;DHT22;9815;52.334;20.890;2023-02-28T09:04:50;2.40;48.30
19359;DHT22;9815;52.334;20.890;2023-02-28T09:07:18;2.20;47.80
19359;DHT22;9815;52.334;20.890;2023-02-28T09:09:46;2.30;47.30
19359;DHT22;9815;52.334;20.890;2023-02-28T09:12:24;2.60;46.90
19359;DHT22;9815;52.334;20.890;2023-02-28T09:14:52;2.70;45.90
19359;DHT22;9815;52.334;20.890;2023-02-28T09:17:20;2.80;43.40
19359;DHT22;9815;52.334;20.890;2023-02-28T09:19:48;2.80;45.10
19359;DHT22;9815;52.334;20.890;2023-02-28T09:22:16;3.00;42.60
19359;DHT22;9815;52.334;20.890;2023-02-28T09:24:44;3.20;40.20
19359;DHT22;9815;52.334;20.890;2023-02-28T09:27:12;3.30;39.30
19359;DHT22;9815;52.334;20.890;2023-02-28T09:29:42;3.30;39.70
19359;DHT22;9815;52.334;20.890;2023-02-28T09:32:09;3.40;39.30
19359;DHT22;9815;52.334;20.890;2023-02-28T09:34:37;3.20;39.60
19359;DHT22;9815;52.334;20.890;2023-02-28T09:37:06;3.10;41.00
19359;DHT22;9815;52.334;20.890;2023-02-28T09:39:33;3.20;39.70
19359;DHT22;9815;52.334;20.890;2023-02-28T09:42:02;2.70;40.30
19359;DHT22;9815;52.334;20.890;2023-02-28T09:44:33;3.00;42.10
19359;DHT22;9815;52.334;20.890;2023-02-28T09:47:11;3.30;40.80
19359;DHT22;9815;52.334;20.890;2023-02-28T09:49:42;3.30;40.60
19359;DHT22;9815;52.334;20.890;2023-02-28T09:52:16;3.30;39.00
19359;DHT22;9815;52.334;20.890;2023-02-28T09:54:46;3.40;38.50
19359;DHT22;9815;52.334;20.890;2023-02-28T09:57:19;3.50;38.00
19359;DHT22;9815;52.334;20.890;2023-02-28T10:00:03;3.50;37.50
19359;DHT22;9815;52.334;20.890;2023-02-28T10:02:53;3.30;37.90
19359;DHT22;9815;52.334;20.890;2023-02-28T10:05:27;3.50;37.10
19359;DHT22;9815;52.334;20.890;2023-02-28T10:08:05;3.60;38.90
19359;DHT22;9815;52.334;20.890;2023-02-28T10:10:39;3.70;39.60
19359;DHT22;9815;52.334;20.890;2023-02-28T10:13:15;4.30;37.30
19359;DHT22;9815;52.334;20.890;2023-02-28T10:15:46;4.50;36.40
19359;DHT22;9815;52.334;20.890;2023-02-28T10:18:21;4.40;35.40
19359;DHT22;9815;52.334;20.890;2023-02-28T10:20:51;4.60;36.80
19359;DHT22;9815;52.334;20.890;2023-02-28T10:23:23;4.80;34.60
19359;DHT22;9815;52.334;20.890;2023-02-28T10:25:57;4.80;34.20
19359;DHT22;9815;52.334;20.890;2023-02-28T10:28:29;5.00;32.30
19359;DHT22;9815;52.334;20.890;2023-02-28T10:30:58;4.40;33.80
19359;DHT22;9815;52.334;20.890;2023-02-28T10:33:31;4.80;34.80
19359;DHT22;9815;52.334;20.890;2023-02-28T10:36:02;4.50;34.60
19359;DHT22;9815;52.334;20.890;2023-02-28T10:38:34;4.80;34.40
19359;DHT22;9815;52.334;20.890;2023-02-28T10:41:07;4.90;33.70
19359;DHT22;9815;52.334;20.890;2023-02-28T10:43:40;4.90;33.40
19359;DHT22;9815;52.334;20.890;2023-02-28T10:46:23;4.70;33.40
19359;DHT22;9815;52.334;20.890;2023-02-28T10:49:04;4.60;33.90
19359;DHT22;9815;52.334;20.890;2023-02-28T10:51:37;4.50;33.70
19359;DHT22;9815;52.334;20.890;2023-02-28T10:54:16;4.80;33.90
19359;DHT22;9815;52.334;20.890;2023-02-28T10:56:44;4.90;33.00
19359;DHT22;9815;52.334;20.890;2023-02-28T10:59:28;5.10;32.90
19359;DHT22;9815;52.334;20.890;2023-02-28T11:01:56;4.90;33.20
19359;DHT22;9815;52.334;20.890;2023-02-28T11:04:37;5.30;33.40
19359;DHT22;9815;52.334;20.890;2023-02-28T11:07:17;4.70;33.50
19359;DHT22;9815;52.334;20.890;2023-02-28T11:09:50;4.60;34.10
19359;DHT22;9815;52.334;20.890;2023-02-28T11:12:24;5.10;33.00
19359;DHT22;9815;52.334;20.890;2023-02-28T11:14:55;5.30;32.30
19359;DHT22;9815;52.334;20.890;2023-02-28T11:17:26;6.00;31.50
19359;DHT22;9815;52.334;20.890;2023-02-28T11:19:59;6.20;31.40
19359;DHT22;9815;52.334;20.890;2023-02-28T11:22:31;6.60;30.70
19359;DHT22;9815;52.334;20.890;2023-02-28T11:25:07;6.80;29.30
19359;DHT22;9815;52.334;20.890;2023-02-28T11:27:47;7.10;28.90
19359;DHT22;9815;52.334;20.890;2023-02-28T11:30:31;7.20;28.50
19359;DHT22;9815;52.334;20.890;2023-02-28T11:33:01;7.50;28.30
19359;DHT22;9815;52.334;20.890;2023-02-28T11:35:33;7.30;27.40
19359;DHT22;9815;52.334;20.890;2023-02-28T11:38:07;6.90;28.70
19359;DHT22;9815;52.334;20.890;2023-02-28T11:40:43;6.60;28.70
19359;DHT22;9815;52.334;20.890;2023-02-28T11:43:25;6.40;29.40
19359;DHT22;9815;52.334;20.890;2023-02-28T11:46:06;6.90;29.10
19359;DHT22;9815;52.334;20.890;2023-02-28T11:48:45;6.90;29.10
19359;DHT22;9815;52.334;20.890;2023-02-28T11:51:21;7.50;28.20
19359;DHT22;9815;52.334;20.890;2023-02-28T11:56:54;7.70;27.80
19359;DHT22;9815;52.334;20.890;2023-02-28T11:59:46;7.60;27.70
19359;DHT22;9815;52.334;20.890;2023-02-28T12:02:23;7.60;28.30
19359;DHT22;9815;52.334;20.890;2023-02-28T12:05:11;7.50;27.50
19359;DHT22;9815;52.334;20.890;2023-02-28T12:07:50;6.90;28.70
19359;DHT22;9815;52.334;20.890;2023-02-28T12:10:25;5.90;30.00
19359;DHT22;9815;52.334;20.890;2023-02-28T12:13:03;6.50;30.00
19359;DHT22;9815;52.334;20.890;2023-02-28T12:15:53;6.40;29.80
19359;DHT22;9815;52.334;20.890;2023-02-28T12:18:53;6.40;29.70
19359;DHT22;9815;52.334;20.890;2023-02-28T12:21:31;6.20;29.70
19359;DHT22;9815;52.334;20.890;2023-02-28T12:26:56;6.50;29.30
19359;DHT22;9815;52.334;20.890;2023-02-28T12:29:28;7.00;29.30
19359;DHT22;9815;52.334;20.890;2023-02-28T12:32:01;7.00;29.10
19359;DHT22;9815;52.334;20.890;2023-02-28T12:34:37;7.20;28.80
19359;DHT22;9815;52.334;20.890;2023-02-28T12:37:10;7.40;28.10
19359;DHT22;9815;52.334;20.890;2023-02-28T12:39:44;7.70;27.50
19359;DHT22;9815;52.334;20.890;2023-02-28T12:42:21;7.70;27.20
19359;DHT22;9815;52.334;20.890;2023-02-28T12:44:55;7.60;27.30
19359;DHT22;9815;52.334;20.890;2023-02-28T12:47:24;7.70;26.90
19359;DHT22;9815;52.334;20.890;2023-02-28T12:49:55;7.70;26.60
19359;DHT22;9815;52.334;20.890;2023-02-28T12:52:31;7.50;26.80
19359;DHT22;9815;52.334;20.890;2023-02-28T12:55:11;7.70;27.10
19359;DHT22;9815;52.334;20.890;2023-02-28T12:57:45;7.40;26.70
19359;DHT22;9815;52.334;20.890;2023-02-28T13:00:17;6.80;27.80
19359;DHT22;9815;52.334;20.890;2023-02-28T13:06:08;6.30;29.60
19359;DHT22;9815;52.334;20.890;2023-02-28T13:08:59;5.90;30.50
19359;DHT22;9815;52.334;20.890;2023-02-28T13:11:31;6.00;30.10
19359;DHT22;9815;52.334;20.890;2023-02-28T13:14:03;6.00;31.10
19359;DHT22;9815;52.334;20.890;2023-02-28T13:16:56;5.90;30.70
19359;DHT22;9815;52.334;20.890;2023-02-28T13:19:26;5.80;31.80
19359;DHT22;9815;52.334;20.890;2023-02-28T13:21:57;6.10;30.60
19359;DHT22;9815;52.334;20.890;2023-02-28T13:24:47;6.00;30.60
19359;DHT22;9815;52.334;20.890;2023-02-28T13:27:33;6.10;30.10
19359;DHT22;9815;52.334;20.890;2023-02-28T13:33:27;5.40;32.40
19359;DHT22;9815;52.334;20.890;2023-02-28T13:36:25;5.50;31.70
19359;DHT22;9815;52.334;20.890;2023-02-28T13:38:54;5.70;31.40
19359;DHT22;9815;52.334;20.890;2023-02-28T13:41:47;5.60;31.90
19359;DHT22;9815;52.334;20.890;2023-02-28T13:44:18;5.20;32.40
19359;DHT22;9815;52.334;20.890;2023-02-28T13:47:21;5.50;32.00
19359;DHT22;9815;52.334;20.890;2023-02-28T13:49:51;5.30;32.90
19359;DHT22;9815;52.334;20.890;2023-02-28T13:52:22;5.00;32.00
19359;DHT22;9815;52.334;20.890;2023-02-28T13:54:58;5.20;31.80
19359;DHT22;9815;52.334;20.890;2023-02-28T13:57:37;4.70;32.90
19359;DHT22;9815;52.334;20.890;2023-02-28T14:00:21;4.60;33.20
19359;DHT22;9815;52.334;20.890;2023-02-28T14:03:06;4.90;33.20
19359;DHT22;9815;52.334;20.890;2023-02-28T14:05:37;4.90;33.90
19359;DHT22;9815;52.334;20.890;2023-02-28T14:08:07;5.00;33.70
19359;DHT22;9815;52.334;20.890;2023-02-28T14:10:44;5.00;33.50
19359;DHT22;9815;52.334;20.890;2023-02-28T14:13:39;4.90;33.70
19359;DHT22;9815;52.334;20.890;2023-02-28T14:16:14;4.50;34.50
19359;DHT22;9815;52.334;20.890;2023-02-28T14:18:49;4.80;33.50
19359;DHT22;9815;52.334;20.890;2023-02-28T14:21:22;4.90;33.80
19359;DHT22;9815;52.334;20.890;2023-02-28T14:30:03;4.50;34.90
19359;DHT22;9815;52.334;20.890;2023-02-28T14:32:45;4.50;35.10
19359;DHT22;9815;52.334;20.890;2023-02-28T14:35:22;4.40;35.80
19359;DHT22;9815;52.334;20.890;2023-02-28T14:37:56;4.20;35.50
19359;DHT22;9815;52.334;20.890;2023-02-28T14:40:28;3.90;35.80
19359;DHT22;9815;52.334;20.890;2023-02-28T14:42:59;3.90;36.10
19359;DHT22;9815;52.334;20.890;2023-02-28T14:45:30;3.80;35.50
19359;DHT22;9815;52.334;20.890;2023-02-28T14:48:01;3.70;35.60
19359;DHT22;9815;52.334;20.890;2023-02-28T14:50:31;3.70;36.60
19359;DHT22;9815;52.334;20.890;2023-02-28T14:53:00;3.60;37.00
19359;DHT22;9815;52.334;20.890;2023-02-28T14:55:30;3.50;37.80
19359;DHT22;9815;52.334;20.890;2023-02-28T14:58:00;3.50;37.90
19359;DHT22;9815;52.334;20.890;2023-02-28T15:00:34;3.40;39.90
19359;DHT22;9815;52.334;20.890;2023-02-28T15:03:19;3.30;39.60
19359;DHT22;9815;52.334;20.890;2023-02-28T15:05:54;3.30;38.70
19359;DHT22;9815;52.334;20.890;2023-02-28T15:08:24;3.20;39.00
19359;DHT22;9815;52.334;20.890;2023-02-28T15:10:55;3.10;39.30
19359;DHT22;9815;52.334;20.890;2023-02-28T15:13:26;3.00;41.00
19359;DHT22;9815;52.334;20.890;2023-02-28T15:16:00;2.90;42.20
19359;DHT22;9815;52.334;20.890;2023-02-28T15:18:39;2.90;42.10
19359;DHT22;9815;52.334;20.890;2023-02-28T15:21:13;2.90;42.80
19359;DHT22;9815;52.334;20.890;2023-02-28T15:23:46;2.80;43.20
19359;DHT22;9815;52.334;20.890;2023-02-28T15:26:18;2.80;44.30
19359;DHT22;9815;52.334;20.890;2023-02-28T15:28:48;2.70;43.90
19359;DHT22;9815;52.334;20.890;2023-02-28T15:31:25;2.60;44.40
19359;DHT22;9815;52.334;20.890;2023-02-28T15:33:57;2.50;44.60
19359;DHT22;9815;52.334;20.890;2023-02-28T15:36:29;2.50;46.20
19359;DHT22;9815;52.334;20.890;2023-02-28T15:38:58;2.40;46.70
19359;DHT22;9815;52.334;20.890;2023-02-28T15:41:41;2.30;48.00
19359;DHT22;9815;52.334;20.890;2023-02-28T15:44:25;2.20;49.80
19359;DHT22;9815;52.334;20.890;2023-02-28T15:46:59;2.10;51.20
19359;DHT22;9815;52.334;20.890;2023-02-28T15:49:36;2.00;50.90
19359;DHT22;9815;52.334;20.890;2023-02-28T15:52:13;1.90;52.30
19359;DHT22;9815;52.334;20.890;2023-02-28T15:54:43;1.80;53.50
19359;DHT22;9815;52.334;20.890;2023-02-28T15:57:15;1.70;56.20
19359;DHT22;9815;52.334;20.890;2023-02-28T15:59:50;1.60;57.40
19359;DHT22;9815;52.334;20.890;2023-02-28T16:02:21;1.50;58.30
19359;DHT22;9815;52.334;20.890;2023-02-28T16:07:45;1.40;61.30
19359;DHT22;9815;52.334;20.890;2023-02-28T16:10:15;1.30;63.00
19359;DHT22;9815;52.334;20.890;2023-02-28T16:12:43;1.20;63.60
19359;DHT22;9815;52.334;20.890;2023-02-28T16:15:18;1.10;64.60
19359;DHT22;9815;52.334;20.890;2023-02-28T16:17:47;1.10;66.10
19359;DHT22;9815;52.334;20.890;2023-02-28T16:20:19;1.00;68.20
19359;DHT22;9815;52.334;20.890;2023-02-28T16:22:47;0.90;69.70
19359;DHT22;9815;52.334;20.890;2023-02-28T16:25:16;0.80;72.40
19359;DHT22;9815;52.334;20.890;2023-02-28T16:27:47;0.70;73.80
19359;DHT22;9815;52.334;20.890;2023-02-28T16:30:20;0.60;75.00
19359;DHT22;9815;52.334;20.890;2023-02-28T16:32:50;0.60;76.10